createdAt,value
2017-05-07T00:00:05.877Z,929.29
2017-05-07T00:00:25.356Z,929.26
2017-05-07T00:00:45.338Z,929.28
2017-05-07T00:01:05.338Z,929.27
2017-05-07T00:01:24.732Z,929.28
2017-05-07T00:01:44.694Z,929.29
2017-05-07T00:02:04.652Z,929.29
2017-05-07T00:02:24.067Z,929.27
2017-05-07T00:02:43.652Z,929.27
2017-05-07T00:03:03.670Z,929.25
2017-05-07T00:03:23.074Z,929.29
2017-05-07T00:03:43.026Z,929.26
2017-05-07T00:04:02.976Z,929.31
2017-05-07T00:04:22.369Z,929.32
2017-05-07T00:04:42.350Z,929.3
2017-05-07T00:05:02.301Z,929.3
2017-05-07T00:05:21.706Z,929.32
2017-05-07T00:05:41.115Z,929.29
2017-05-07T00:06:01.090Z,929.32
2017-05-07T00:06:20.519Z,929.32
2017-05-07T00:06:40.505Z,929.37
2017-05-07T00:07:00.489Z,929.31
2017-05-07T00:07:19.339Z,929.34
2017-05-07T00:07:39.316Z,929.33
2017-05-07T00:07:59.308Z,929.34
2017-05-07T00:08:18.179Z,929.32
2017-05-07T00:08:38.189Z,929.33
2017-05-07T00:08:57.593Z,929.25
2017-05-07T00:09:17.574Z,929.31
2017-05-07T00:09:37.552Z,929.3
2017-05-07T00:09:57.528Z,929.29
2017-05-07T00:10:16.938Z,929.24
2017-05-07T00:10:36.908Z,929.26
2017-05-07T00:10:56.301Z,929.23
2017-05-07T00:11:16.297Z,929.27
2017-05-07T00:11:36.263Z,929.23
2017-05-07T00:11:55.677Z,929.22
2017-05-07T00:12:15.071Z,929.21
2017-05-07T00:12:35.514Z,929.19
2017-05-07T00:12:55.506Z,929.22
2017-05-07T00:13:15.533Z,929.2
2017-05-07T00:13:35.035Z,929.21
2017-05-07T00:13:55.077Z,929.19
2017-05-07T00:14:15.130Z,929.22
2017-05-07T00:14:35.110Z,929.23
2017-05-07T00:14:55.051Z,929.21
2017-05-07T00:15:15.074Z,929.18
2017-05-07T00:15:35.072Z,929.19
2017-05-07T00:15:55.138Z,929.14
2017-05-07T00:16:14.677Z,929.15
2017-05-07T00:16:34.076Z,929.16
2017-05-07T00:16:54.060Z,929.17
2017-05-07T00:17:13.510Z,929.17
2017-05-07T00:17:32.358Z,929.17
2017-05-07T00:17:52.347Z,929.19
2017-05-07T00:18:12.359Z,929.23
2017-05-07T00:18:32.337Z,929.19
2017-05-07T00:18:52.316Z,929.2
2017-05-07T00:19:12.268Z,929.2
2017-05-07T00:19:32.270Z,929.19
2017-05-07T00:19:52.284Z,929.19
2017-05-07T00:20:11.722Z,929.19
2017-05-07T00:20:31.149Z,929.2
2017-05-07T00:20:51.129Z,929.23
2017-05-07T00:21:10.634Z,929.21
2017-05-07T00:21:30.063Z,929.17
2017-05-07T00:21:49.525Z,929.17
2017-05-07T00:22:09.567Z,929.21
2017-05-07T00:22:28.967Z,929.21
2017-05-07T00:22:48.975Z,929.24
2017-05-07T00:23:08.957Z,929.17
2017-05-07T00:23:28.959Z,929.21
2017-05-07T00:23:48.952Z,929.24
2017-05-07T00:24:08.989Z,929.23
2017-05-07T00:24:28.950Z,929.16
2017-05-07T00:24:48.938Z,929.23
2017-05-07T00:25:08.953Z,929.25
2017-05-07T00:25:28.402Z,929.25
2017-05-07T00:25:48.402Z,929.25
2017-05-07T00:26:08.420Z,929.22
2017-05-07T00:26:28.388Z,929.23
2017-05-07T00:26:47.804Z,929.26
2017-05-07T00:27:07.772Z,929.27
2017-05-07T00:27:27.195Z,929.26
2017-05-07T00:27:47.169Z,929.23
2017-05-07T00:28:07.149Z,929.24
2017-05-07T00:28:25.993Z,929.24
2017-05-07T00:28:46.005Z,929.25
2017-05-07T00:29:05.379Z,929.24
2017-05-07T00:29:25.464Z,929.3
2017-05-07T00:29:45.473Z,929.27
2017-05-07T00:30:05.402Z,929.23
2017-05-07T00:30:24.808Z,929.25
2017-05-07T00:30:44.817Z,929.25
2017-05-07T00:31:04.860Z,929.24
2017-05-07T00:31:24.237Z,929.22
2017-05-07T00:31:44.251Z,929.23
2017-05-07T00:32:04.266Z,929.25
2017-05-07T00:32:24.384Z,929.21
2017-05-07T00:32:44.479Z,929.23
2017-05-07T00:33:03.942Z,929.24
2017-05-07T00:33:23.944Z,929.26
2017-05-07T00:33:43.937Z,929.28
2017-05-07T00:34:03.899Z,929.23
2017-05-07T00:34:23.328Z,929.27
2017-05-07T00:34:43.294Z,929.29
2017-05-07T00:35:03.283Z,929.19
2017-05-07T00:35:22.692Z,929.25
2017-05-07T00:35:42.647Z,929.27
2017-05-07T00:36:02.611Z,929.24
2017-05-07T00:36:22.618Z,929.24
2017-05-07T00:36:42.590Z,929.22
2017-05-07T00:37:02.587Z,929.18
2017-05-07T00:37:21.994Z,929.2
2017-05-07T00:37:41.982Z,929.2
2017-05-07T00:38:01.942Z,929.17
2017-05-07T00:38:21.915Z,929.19
2017-05-07T00:38:41.933Z,929.21
2017-05-07T00:39:01.924Z,929.19
2017-05-07T00:39:21.784Z,929.25
2017-05-07T00:39:41.759Z,929.22
2017-05-07T00:40:01.878Z,929.23
2017-05-07T00:40:20.871Z,929.28
2017-05-07T00:40:41.170Z,929.27
2017-05-07T00:41:01.157Z,929.22
2017-05-07T00:41:21.144Z,929.23
2017-05-07T00:41:41.134Z,929.24
2017-05-07T00:42:01.116Z,929.25
2017-05-07T00:42:21.152Z,929.23
2017-05-07T00:42:41.126Z,929.26
2017-05-07T00:43:01.137Z,929.26
2017-05-07T00:43:20.564Z,929.24
2017-05-07T00:43:39.984Z,929.23
2017-05-07T00:43:59.971Z,929.25
2017-05-07T00:44:19.396Z,929.27
2017-05-07T00:44:39.393Z,929.27
2017-05-07T00:44:59.372Z,929.25
2017-05-07T00:45:19.366Z,929.22
2017-05-07T00:45:39.362Z,929.27
2017-05-07T00:45:59.328Z,929.26
2017-05-07T00:46:19.298Z,929.24
2017-05-07T00:46:38.726Z,929.25
2017-05-07T00:46:58.123Z,929.27
2017-05-07T00:47:17.541Z,929.27
2017-05-07T00:47:37.496Z,929.27
2017-05-07T00:47:56.908Z,929.27
2017-05-07T00:48:17.044Z,929.23
2017-05-07T00:48:37.069Z,929.28
2017-05-07T00:48:56.652Z,929.29
2017-05-07T00:49:15.559Z,929.32
2017-05-07T00:49:35.612Z,929.29
2017-05-07T00:49:55.038Z,929.29
2017-05-07T00:50:15.056Z,929.25
2017-05-07T00:50:35.036Z,929.22
2017-05-07T00:50:54.481Z,929.21
2017-05-07T00:51:14.495Z,929.23
2017-05-07T00:51:34.464Z,929.27
2017-05-07T00:51:54.448Z,929.23
2017-05-07T00:52:14.416Z,929.23
2017-05-07T00:52:34.494Z,929.22
2017-05-07T00:52:54.470Z,929.28
2017-05-07T00:53:13.905Z,929.19
2017-05-07T00:53:33.876Z,929.19
2017-05-07T00:53:53.855Z,929.22
2017-05-07T00:54:13.264Z,929.23
2017-05-07T00:54:32.674Z,929.24
2017-05-07T00:54:52.674Z,929.26
2017-05-07T00:55:12.651Z,929.24
2017-05-07T00:55:32.054Z,929.25
2017-05-07T00:55:52.044Z,929.29
2017-05-07T00:56:12.028Z,929.24
2017-05-07T00:56:31.415Z,929.24
2017-05-07T00:56:51.409Z,929.28
2017-05-07T00:57:11.360Z,929.27
2017-05-07T00:57:31.296Z,929.3
2017-05-07T00:57:51.427Z,929.32
2017-05-07T00:58:11.398Z,929.27
2017-05-07T00:58:30.239Z,929.27
2017-05-07T00:58:49.654Z,929.26
2017-05-07T00:59:09.622Z,929.25
2017-05-07T00:59:29.599Z,929.31
2017-05-07T00:59:49.585Z,929.26
2017-05-07T01:00:09.567Z,929.28
2017-05-07T01:00:29.547Z,929.28
2017-05-07T01:00:49.500Z,929.29
2017-05-07T01:01:09.474Z,929.29
2017-05-07T01:01:28.910Z,929.26
2017-05-07T01:01:48.855Z,929.24
2017-05-07T01:02:08.303Z,929.27
2017-05-07T01:02:27.717Z,929.31
2017-05-07T01:02:47.666Z,929.28
2017-05-07T01:03:07.055Z,929.32
2017-05-07T01:03:27.034Z,929.28
2017-05-07T01:03:47.040Z,929.27
2017-05-07T01:04:07.034Z,929.27
2017-05-07T01:04:27.045Z,929.31
2017-05-07T01:04:47.052Z,929.28
2017-05-07T01:05:06.445Z,929.29
2017-05-07T01:05:26.437Z,929.27
2017-05-07T01:05:46.460Z,929.31
2017-05-07T01:06:06.410Z,929.27
2017-05-07T01:06:25.822Z,929.25
2017-05-07T01:06:44.695Z,929.26
2017-05-07T01:07:04.728Z,929.23
2017-05-07T01:07:24.145Z,929.23
2017-05-07T01:07:44.396Z,929.26
2017-05-07T01:08:04.387Z,929.28
2017-05-07T01:08:23.263Z,929.25
2017-05-07T01:08:43.271Z,929.25
2017-05-07T01:09:03.235Z,929.2
2017-05-07T01:09:23.216Z,929.24
2017-05-07T01:09:42.642Z,929.21
2017-05-07T01:10:02.640Z,929.23
2017-05-07T01:10:21.476Z,929.24
2017-05-07T01:10:40.383Z,929.22
2017-05-07T01:11:00.406Z,929.21
2017-05-07T01:11:20.432Z,929.16
2017-05-07T01:11:39.876Z,929.21
2017-05-07T01:11:59.885Z,929.18
2017-05-07T01:12:19.274Z,929.21
2017-05-07T01:12:38.720Z,929.2
2017-05-07T01:12:58.722Z,929.17
2017-05-07T01:13:18.137Z,929.21
2017-05-07T01:13:37.598Z,929.19
2017-05-07T01:13:57.578Z,929.21
2017-05-07T01:14:17.139Z,929.22
2017-05-07T01:14:37.147Z,929.2
2017-05-07T01:14:56.004Z,929.19
2017-05-07T01:15:16.089Z,929.21
2017-05-07T01:15:36.049Z,929.19
2017-05-07T01:15:56.060Z,929.17
2017-05-07T01:16:15.990Z,929.14
2017-05-07T01:16:36.013Z,929.14
2017-05-07T01:16:55.995Z,929.15
2017-05-07T01:17:16.035Z,929.14
2017-05-07T01:17:36.039Z,929.15
2017-05-07T01:17:56.023Z,929.15
2017-05-07T01:18:15.459Z,929.13
2017-05-07T01:18:35.475Z,929.11
2017-05-07T01:18:55.498Z,929.11
2017-05-07T01:19:14.888Z,929.12
2017-05-07T01:19:34.869Z,929.11
2017-05-07T01:19:54.872Z,929.11
2017-05-07T01:20:14.337Z,929.12
2017-05-07T01:20:34.346Z,929.11
2017-05-07T01:20:54.321Z,929.11
2017-05-07T01:21:14.300Z,929.13
2017-05-07T01:21:34.323Z,929.11
2017-05-07T01:21:53.738Z,929.1
2017-05-07T01:22:13.132Z,929.1
2017-05-07T01:22:32.548Z,929.12
2017-05-07T01:22:52.553Z,929.15
2017-05-07T01:23:12.556Z,929.14
2017-05-07T01:23:32.612Z,929.11
2017-05-07T01:23:52.585Z,929.06
2017-05-07T01:24:12.606Z,929.13
2017-05-07T01:24:30.933Z,929.11
2017-05-07T01:24:50.910Z,929.06
2017-05-07T01:25:10.887Z,929.11
2017-05-07T01:25:30.267Z,929.12
2017-05-07T01:25:50.257Z,929.09
2017-05-07T01:26:10.234Z,929.14
2017-05-07T01:26:29.650Z,929.11
2017-05-07T01:26:49.042Z,929.09
2017-05-07T01:27:09.117Z,929.09
2017-05-07T01:27:28.600Z,929.08
2017-05-07T01:27:48.081Z,929.08
2017-05-07T01:28:08.163Z,929.09
2017-05-07T01:28:27.610Z,929.06
2017-05-07T01:28:47.585Z,929.07
2017-05-07T01:29:07.595Z,929.03
2017-05-07T01:29:27.093Z,929.05
2017-05-07T01:29:47.142Z,929.03
2017-05-07T01:30:07.113Z,929.03
2017-05-07T01:30:27.108Z,929.07
2017-05-07T01:30:47.118Z,929.07
2017-05-07T01:31:07.089Z,929.05
2017-05-07T01:31:26.505Z,929.05
2017-05-07T01:31:46.489Z,929.08
2017-05-07T01:32:05.929Z,929.06
2017-05-07T01:32:24.836Z,929.04
2017-05-07T01:32:44.305Z,929.04
2017-05-07T01:33:03.145Z,929.01
2017-05-07T01:33:23.144Z,929.04
2017-05-07T01:33:43.141Z,929.05
2017-05-07T01:34:03.205Z,929.07
2017-05-07T01:34:23.205Z,929.05
2017-05-07T01:34:43.184Z,929.02
2017-05-07T01:35:03.270Z,929.03
2017-05-07T01:35:23.315Z,929.04
2017-05-07T01:35:43.385Z,929.04
2017-05-07T01:36:03.419Z,929.02
2017-05-07T01:36:23.386Z,929.05
2017-05-07T01:36:43.416Z,929.03
2017-05-07T01:37:03.395Z,929
2017-05-07T01:37:23.423Z,929.01
2017-05-07T01:37:43.411Z,929.03
2017-05-07T01:38:03.429Z,929.01
2017-05-07T01:38:22.266Z,929.02
2017-05-07T01:38:42.289Z,929.02
2017-05-07T01:39:02.250Z,929.05
2017-05-07T01:39:22.231Z,928.97
2017-05-07T01:39:42.199Z,929
2017-05-07T01:40:02.214Z,928.99
2017-05-07T01:40:21.719Z,928.98
2017-05-07T01:40:41.219Z,928.97
2017-05-07T01:41:01.151Z,929
2017-05-07T01:41:20.551Z,928.97
2017-05-07T01:41:44.215Z,929.02
2017-05-07T01:42:04.972Z,929.01
2017-05-07T01:42:24.391Z,929.01
2017-05-07T01:42:44.351Z,928.97
2017-05-07T01:43:04.336Z,929
2017-05-07T01:43:23.763Z,929.01
2017-05-07T01:43:43.745Z,928.95
2017-05-07T01:44:03.195Z,929.01
2017-05-07T01:44:22.577Z,928.96
2017-05-07T01:44:42.580Z,928.98
2017-05-07T01:45:02.581Z,928.98
2017-05-07T01:45:21.554Z,928.98
2017-05-07T01:45:41.585Z,929.04
2017-05-07T01:46:01.539Z,929.01
2017-05-07T01:46:20.978Z,929
2017-05-07T01:46:41.015Z,929
2017-05-07T01:47:01.089Z,929.05
2017-05-07T01:47:19.941Z,929.01
2017-05-07T01:47:39.974Z,929
2017-05-07T01:48:00.207Z,929.01
2017-05-07T01:48:19.638Z,929.05
2017-05-07T01:48:39.634Z,929.06
2017-05-07T01:48:59.711Z,929.05
2017-05-07T01:49:19.732Z,929.04
2017-05-07T01:49:39.721Z,929.05
2017-05-07T01:49:59.146Z,929.04
2017-05-07T01:50:19.165Z,929.02
2017-05-07T01:50:38.050Z,929.04
2017-05-07T01:50:58.027Z,929.03
2017-05-07T01:51:17.970Z,929.01
2017-05-07T01:51:37.378Z,929.03
2017-05-07T01:51:57.348Z,929.01
2017-05-07T01:52:17.325Z,929.04
2017-05-07T01:52:37.275Z,929.04
2017-05-07T01:52:57.243Z,929.04
2017-05-07T01:53:17.199Z,929.06
2017-05-07T01:53:37.201Z,929.03
2017-05-07T01:53:56.628Z,929.03
2017-05-07T01:54:16.634Z,928.98
2017-05-07T01:54:36.597Z,929.02
2017-05-07T01:54:56.582Z,928.99
2017-05-07T01:55:15.711Z,929.03
2017-05-07T01:55:35.156Z,929.02
2017-05-07T01:55:55.117Z,929.06
2017-05-07T01:56:15.099Z,929.01
2017-05-07T01:56:35.106Z,929.01
2017-05-07T01:56:55.062Z,929.01
2017-05-07T01:57:14.494Z,929.02
2017-05-07T01:57:34.498Z,929.02
2017-05-07T01:57:54.505Z,929.02
2017-05-07T01:58:13.945Z,929.03
2017-05-07T01:58:33.948Z,929.04
2017-05-07T01:58:53.377Z,929.03
2017-05-07T01:59:13.939Z,929.02
2017-05-07T01:59:33.989Z,928.99
2017-05-07T01:59:53.530Z,928.99
2017-05-07T02:00:13.540Z,929.02
2017-05-07T02:00:33.502Z,929.01
2017-05-07T02:00:52.978Z,929.03
2017-05-07T02:01:12.936Z,929.01
2017-05-07T02:01:32.778Z,929.02
2017-05-07T02:01:54.713Z,929.02
2017-05-07T02:02:14.123Z,928.97
2017-05-07T02:02:32.424Z,929.01
2017-05-07T02:02:52.458Z,928.97
2017-05-07T02:03:12.455Z,928.97
2017-05-07T02:03:31.875Z,928.95
2017-05-07T02:03:51.857Z,928.97
2017-05-07T02:04:11.842Z,928.94
2017-05-07T02:04:31.842Z,928.95
2017-05-07T02:04:51.825Z,928.93
2017-05-07T02:05:11.794Z,928.92
2017-05-07T02:05:30.106Z,928.91
2017-05-07T02:05:50.129Z,928.91
2017-05-07T02:06:10.126Z,928.91
2017-05-07T02:06:29.561Z,928.88
2017-05-07T02:06:48.941Z,928.87
2017-05-07T02:07:08.934Z,928.89
2017-05-07T02:07:28.920Z,928.9
2017-05-07T02:07:48.874Z,928.9
2017-05-07T02:08:08.883Z,928.92
2017-05-07T02:08:28.853Z,928.91
2017-05-07T02:08:48.855Z,928.92
2017-05-07T02:09:08.829Z,928.93
2017-05-07T02:09:27.703Z,928.93
2017-05-07T02:09:47.110Z,928.95
2017-05-07T02:10:07.087Z,928.95
2017-05-07T02:10:27.149Z,928.94
2017-05-07T02:10:46.678Z,928.93
2017-05-07T02:11:06.079Z,928.93
2017-05-07T02:11:26.067Z,928.96
2017-05-07T02:11:46.066Z,928.88
2017-05-07T02:12:06.078Z,928.9
2017-05-07T02:12:26.153Z,928.92
2017-05-07T02:12:45.326Z,928.92
2017-05-07T02:13:05.299Z,928.92
2017-05-07T02:13:25.364Z,928.87
2017-05-07T02:13:44.793Z,928.89
2017-05-07T02:14:04.894Z,928.92
2017-05-07T02:14:24.404Z,928.9
2017-05-07T02:14:43.867Z,928.89
2017-05-07T02:15:03.855Z,928.88
2017-05-07T02:15:23.837Z,928.88
2017-05-07T02:15:43.792Z,928.84
2017-05-07T02:16:03.815Z,928.86
2017-05-07T02:16:23.239Z,928.83
2017-05-07T02:16:43.215Z,928.86
2017-05-07T02:17:03.233Z,928.87
2017-05-07T02:17:23.189Z,928.83
2017-05-07T02:17:43.179Z,928.83
2017-05-07T02:18:03.133Z,928.8
2017-05-07T02:18:22.558Z,928.83
2017-05-07T02:18:42.007Z,928.8
2017-05-07T02:19:01.983Z,928.82
2017-05-07T02:19:21.391Z,928.82
2017-05-07T02:19:40.841Z,928.84
2017-05-07T02:20:00.855Z,928.83
2017-05-07T02:20:20.801Z,928.87
2017-05-07T02:20:40.742Z,928.8
2017-05-07T02:21:00.731Z,928.84
2017-05-07T02:21:20.130Z,928.87
2017-05-07T02:21:40.104Z,928.82
2017-05-07T02:22:00.092Z,928.88
2017-05-07T02:22:20.076Z,928.88
2017-05-07T02:22:40.136Z,928.85
2017-05-07T02:23:00.114Z,928.86
2017-05-07T02:23:19.547Z,928.87
2017-05-07T02:23:39.554Z,928.84
2017-05-07T02:23:59.540Z,928.86
2017-05-07T02:24:19.556Z,928.86
2017-05-07T02:24:39.533Z,928.87
2017-05-07T02:24:59.570Z,928.83
2017-05-07T02:25:19.021Z,928.86
2017-05-07T02:25:39.081Z,928.85
2017-05-07T02:25:59.178Z,928.81
2017-05-07T02:26:18.674Z,928.82
2017-05-07T02:26:38.210Z,928.82
2017-05-07T02:26:58.301Z,928.8
2017-05-07T02:27:17.751Z,928.8
2017-05-07T02:27:37.190Z,928.81
2017-05-07T02:27:57.197Z,928.79
2017-05-07T02:28:17.164Z,928.83
2017-05-07T02:28:36.611Z,928.82
2017-05-07T02:28:56.606Z,928.82
2017-05-07T02:29:16.692Z,928.8
2017-05-07T02:29:36.129Z,928.81
2017-05-07T02:29:55.582Z,928.82
2017-05-07T02:30:15.026Z,928.82
2017-05-07T02:30:35.068Z,928.83
2017-05-07T02:30:55.152Z,928.79
2017-05-07T02:31:14.550Z,928.76
2017-05-07T02:31:34.538Z,928.75
2017-05-07T02:31:54.648Z,928.73
2017-05-07T02:32:14.056Z,928.73
2017-05-07T02:32:34.051Z,928.72
2017-05-07T02:32:53.991Z,928.72
2017-05-07T02:33:13.983Z,928.76
2017-05-07T02:33:33.451Z,928.76
2017-05-07T02:33:53.454Z,928.7
2017-05-07T02:34:13.446Z,928.7
2017-05-07T02:34:32.867Z,928.67
2017-05-07T02:34:52.815Z,928.72
2017-05-07T02:35:12.805Z,928.7
2017-05-07T02:35:32.226Z,928.7
2017-05-07T02:35:52.176Z,928.71
2017-05-07T02:36:12.137Z,928.74
2017-05-07T02:36:31.572Z,928.66
2017-05-07T02:36:51.555Z,928.7
2017-05-07T02:37:10.943Z,928.72
2017-05-07T02:37:30.919Z,928.71
2017-05-07T02:37:51.240Z,928.72
2017-05-07T02:38:10.702Z,928.71
2017-05-07T02:38:30.689Z,928.7
2017-05-07T02:38:50.645Z,928.68
2017-05-07T02:39:10.613Z,928.66
2017-05-07T02:39:30.601Z,928.65
2017-05-07T02:39:50.548Z,928.67
2017-05-07T02:40:09.391Z,928.66
2017-05-07T02:40:29.545Z,928.64
2017-05-07T02:40:49.670Z,928.64
2017-05-07T02:41:09.624Z,928.64
2017-05-07T02:41:29.630Z,928.61
2017-05-07T02:41:49.615Z,928.63
2017-05-07T02:42:09.578Z,928.61
2017-05-07T02:42:29.581Z,928.67
2017-05-07T02:42:51.828Z,928.69
2017-05-07T02:43:11.788Z,928.65
2017-05-07T02:43:31.220Z,928.67
2017-05-07T02:43:51.194Z,928.65
2017-05-07T02:44:11.151Z,928.66
2017-05-07T02:44:31.130Z,928.68
2017-05-07T02:44:51.078Z,928.61
2017-05-07T02:45:10.499Z,928.62
2017-05-07T02:45:30.485Z,928.64
2017-05-07T02:45:49.882Z,928.63
2017-05-07T02:46:09.857Z,928.61
2017-05-07T02:46:29.784Z,928.57
2017-05-07T02:46:49.314Z,928.57
2017-05-07T02:47:09.262Z,928.59
2017-05-07T02:47:28.693Z,928.58
2017-05-07T02:47:48.146Z,928.55
2017-05-07T02:48:08.114Z,928.58
2017-05-07T02:48:27.559Z,928.56
2017-05-07T02:48:47.526Z,928.54
2017-05-07T02:49:06.913Z,928.55
2017-05-07T02:49:26.863Z,928.57
2017-05-07T02:49:46.272Z,928.52
2017-05-07T02:50:05.662Z,928.61
2017-05-07T02:50:25.198Z,928.56
2017-05-07T02:50:45.155Z,928.57
2017-05-07T02:51:05.169Z,928.58
2017-05-07T02:51:25.145Z,928.58
2017-05-07T02:51:44.551Z,928.58
2017-05-07T02:52:04.485Z,928.55
2017-05-07T02:52:24.457Z,928.56
2017-05-07T02:52:43.869Z,928.58
2017-05-07T02:53:03.860Z,928.56
2017-05-07T02:53:24.043Z,928.55
2017-05-07T02:53:44.015Z,928.55
2017-05-07T02:54:04.008Z,928.55
2017-05-07T02:54:23.973Z,928.53
2017-05-07T02:54:43.922Z,928.57
2017-05-07T02:55:03.892Z,928.59
2017-05-07T02:55:23.859Z,928.51
2017-05-07T02:55:43.820Z,928.54
2017-05-07T02:56:03.757Z,928.52
2017-05-07T02:56:23.702Z,928.57
2017-05-07T02:56:43.722Z,928.54
2017-05-07T02:57:03.699Z,928.55
2017-05-07T02:57:23.657Z,928.56
2017-05-07T02:57:43.668Z,928.6
2017-05-07T02:58:03.669Z,928.58
2017-05-07T02:58:23.145Z,928.63
2017-05-07T02:58:43.093Z,928.59
2017-05-07T02:59:03.097Z,928.6
2017-05-07T02:59:23.118Z,928.6
2017-05-07T02:59:43.113Z,928.57
2017-05-07T03:00:03.080Z,928.55
2017-05-07T03:00:21.957Z,928.56
2017-05-07T03:00:41.968Z,928.54
2017-05-07T03:01:01.931Z,928.52
2017-05-07T03:01:21.358Z,928.56
2017-05-07T03:01:41.308Z,928.51
2017-05-07T03:02:00.664Z,928.52
2017-05-07T03:02:20.608Z,928.52
2017-05-07T03:02:40.018Z,928.52
2017-05-07T03:02:59.997Z,928.5
2017-05-07T03:03:19.400Z,928.5
2017-05-07T03:03:39.361Z,928.52
2017-05-07T03:03:59.328Z,928.49
2017-05-07T03:04:18.749Z,928.5
2017-05-07T03:04:38.176Z,928.53
2017-05-07T03:04:57.580Z,928.47
2017-05-07T03:05:17.566Z,928.48
2017-05-07T03:05:37.576Z,928.47
2017-05-07T03:05:58.856Z,928.51
2017-05-07T03:06:18.254Z,928.48
2017-05-07T03:06:38.229Z,928.51
2017-05-07T03:06:58.197Z,928.52
2017-05-07T03:07:18.148Z,928.53
2017-05-07T03:07:38.157Z,928.54
2017-05-07T03:07:58.139Z,928.55
2017-05-07T03:08:17.568Z,928.55
2017-05-07T03:08:37.532Z,928.55
2017-05-07T03:08:57.520Z,928.51
2017-05-07T03:09:17.535Z,928.56
2017-05-07T03:09:37.480Z,928.55
2017-05-07T03:09:57.489Z,928.47
2017-05-07T03:10:17.457Z,928.52
2017-05-07T03:10:37.436Z,928.54
2017-05-07T03:10:57.382Z,928.52
2017-05-07T03:11:17.381Z,928.5
2017-05-07T03:11:37.362Z,928.5
2017-05-07T03:11:57.327Z,928.52
2017-05-07T03:12:17.341Z,928.5
2017-05-07T03:12:36.197Z,928.5
2017-05-07T03:12:56.845Z,928.48
2017-05-07T03:13:16.799Z,928.52
2017-05-07T03:13:36.792Z,928.5
2017-05-07T03:13:56.775Z,928.53
2017-05-07T03:14:16.742Z,928.47
2017-05-07T03:14:36.139Z,928.46
2017-05-07T03:14:56.116Z,928.48
2017-05-07T03:15:16.097Z,928.5
2017-05-07T03:15:36.054Z,928.5
2017-05-07T03:15:56.027Z,928.49
2017-05-07T03:16:15.482Z,928.47
2017-05-07T03:16:35.461Z,928.45
2017-05-07T03:16:55.440Z,928.5
2017-05-07T03:17:14.272Z,928.45
2017-05-07T03:17:34.244Z,928.48
2017-05-07T03:17:54.373Z,928.46
2017-05-07T03:18:14.375Z,928.46
2017-05-07T03:18:34.343Z,928.47
2017-05-07T03:18:54.343Z,928.46
2017-05-07T03:19:14.309Z,928.48
2017-05-07T03:19:34.254Z,928.44
2017-05-07T03:19:54.228Z,928.42
2017-05-07T03:20:13.694Z,928.45
2017-05-07T03:20:33.124Z,928.46
2017-05-07T03:20:53.087Z,928.45
2017-05-07T03:21:13.074Z,928.44
2017-05-07T03:21:33.025Z,928.48
2017-05-07T03:21:53.005Z,928.52
2017-05-07T03:22:12.965Z,928.51
2017-05-07T03:22:32.350Z,928.48
2017-05-07T03:22:51.778Z,928.48
2017-05-07T03:23:11.746Z,928.47
2017-05-07T03:23:31.144Z,928.47
2017-05-07T03:23:51.158Z,928.52
2017-05-07T03:24:11.495Z,928.48
2017-05-07T03:24:31.493Z,928.51
2017-05-07T03:24:51.435Z,928.5
2017-05-07T03:25:11.389Z,928.49
2017-05-07T03:25:31.342Z,928.48
2017-05-07T03:25:51.299Z,928.49
2017-05-07T03:26:11.283Z,928.48
2017-05-07T03:26:31.258Z,928.48
2017-05-07T03:26:51.238Z,928.48
2017-05-07T03:27:11.198Z,928.5
2017-05-07T03:27:30.634Z,928.46
2017-05-07T03:27:50.609Z,928.5
2017-05-07T03:28:10.591Z,928.45
2017-05-07T03:28:30.561Z,928.4
2017-05-07T03:28:50.513Z,928.39
2017-05-07T03:29:10.853Z,928.42
2017-05-07T03:29:30.827Z,928.42
2017-05-07T03:29:50.821Z,928.4
2017-05-07T03:30:10.809Z,928.4
2017-05-07T03:30:30.216Z,928.37
2017-05-07T03:30:50.196Z,928.38
2017-05-07T03:31:09.643Z,928.37
2017-05-07T03:31:30.478Z,928.38
2017-05-07T03:31:49.888Z,928.37
2017-05-07T03:32:09.867Z,928.38
2017-05-07T03:32:29.275Z,928.38
2017-05-07T03:32:48.687Z,928.38
2017-05-07T03:33:08.675Z,928.37
2017-05-07T03:33:28.639Z,928.37
2017-05-07T03:33:48.576Z,928.39
2017-05-07T03:34:08.552Z,928.39
2017-05-07T03:34:27.420Z,928.42
2017-05-07T03:34:47.408Z,928.41
2017-05-07T03:35:07.385Z,928.41
2017-05-07T03:35:26.817Z,928.39
2017-05-07T03:35:46.793Z,928.44
2017-05-07T03:36:06.226Z,928.39
2017-05-07T03:36:26.220Z,928.4
2017-05-07T03:36:45.668Z,928.41
2017-05-07T03:37:05.070Z,928.37
2017-05-07T03:37:24.493Z,928.36
2017-05-07T03:37:45.153Z,928.4
2017-05-07T03:38:05.097Z,928.39
2017-05-07T03:38:25.088Z,928.37
2017-05-07T03:38:44.472Z,928.39
2017-05-07T03:39:04.441Z,928.38
2017-05-07T03:39:24.401Z,928.42
2017-05-07T03:39:43.809Z,928.41
2017-05-07T03:40:03.750Z,928.36
2017-05-07T03:40:23.192Z,928.37
2017-05-07T03:40:43.202Z,928.35
2017-05-07T03:41:03.150Z,928.35
2017-05-07T03:41:23.145Z,928.36
2017-05-07T03:41:42.516Z,928.34
2017-05-07T03:42:02.509Z,928.33
2017-05-07T03:42:21.352Z,928.3
2017-05-07T03:42:41.347Z,928.31
2017-05-07T03:43:01.347Z,928.34
2017-05-07T03:43:21.321Z,928.33
2017-05-07T03:43:40.749Z,928.32
2017-05-07T03:44:00.760Z,928.31
2017-05-07T03:44:20.191Z,928.31
2017-05-07T03:44:40.167Z,928.31
2017-05-07T03:45:00.155Z,928.29
2017-05-07T03:45:21.074Z,928.31
2017-05-07T03:45:41.043Z,928.34
2017-05-07T03:46:01.019Z,928.3
2017-05-07T03:46:20.438Z,928.31
2017-05-07T03:46:40.536Z,928.31
2017-05-07T03:46:59.958Z,928.31
2017-05-07T03:47:19.384Z,928.31
2017-05-07T03:47:39.357Z,928.29
2017-05-07T03:47:59.357Z,928.29
2017-05-07T03:48:19.340Z,928.28
2017-05-07T03:48:39.296Z,928.26
2017-05-07T03:48:59.228Z,928.26
2017-05-07T03:49:18.645Z,928.28
2017-05-07T03:49:38.607Z,928.26
2017-05-07T03:49:58.580Z,928.27
2017-05-07T03:50:18.554Z,928.28
2017-05-07T03:50:38.535Z,928.26
2017-05-07T03:50:58.498Z,928.24
2017-05-07T03:51:17.931Z,928.26
2017-05-07T03:51:37.927Z,928.22
2017-05-07T03:51:57.904Z,928.26
2017-05-07T03:52:17.856Z,928.25
2017-05-07T03:52:37.240Z,928.24
2017-05-07T03:52:57.229Z,928.23
2017-05-07T03:53:17.208Z,928.25
2017-05-07T03:53:37.168Z,928.24
2017-05-07T03:53:57.156Z,928.27
2017-05-07T03:54:16.012Z,928.25
2017-05-07T03:54:35.981Z,928.27
2017-05-07T03:54:55.956Z,928.28
2017-05-07T03:55:15.920Z,928.25
2017-05-07T03:55:35.894Z,928.27
2017-05-07T03:55:55.872Z,928.25
2017-05-07T03:56:15.856Z,928.24
2017-05-07T03:56:35.834Z,928.29
2017-05-07T03:56:55.775Z,928.29
2017-05-07T03:57:15.869Z,928.25
2017-05-07T03:57:36.080Z,928.25
2017-05-07T03:57:56.059Z,928.26
2017-05-07T03:58:16.084Z,928.28
2017-05-07T03:58:35.508Z,928.29
2017-05-07T03:58:55.478Z,928.26
2017-05-07T03:59:15.466Z,928.25
2017-05-07T03:59:35.557Z,928.25
2017-05-07T03:59:55.593Z,928.21
2017-05-07T04:00:15.000Z,928.23
2017-05-07T04:00:34.979Z,928.2
2017-05-07T04:00:54.990Z,928.21
2017-05-07T04:01:14.435Z,928.21
2017-05-07T04:01:34.403Z,928.23
2017-05-07T04:01:54.375Z,928.21
2017-05-07T04:02:14.321Z,928.22
2017-05-07T04:02:33.863Z,928.22
2017-05-07T04:02:53.257Z,928.17
2017-05-07T04:03:13.212Z,928.21
2017-05-07T04:03:33.201Z,928.16
2017-05-07T04:03:53.171Z,928.16
2017-05-07T04:04:13.146Z,928.15
2017-05-07T04:04:33.153Z,928.18
2017-05-07T04:04:53.146Z,928.17
2017-05-07T04:05:13.494Z,928.18
2017-05-07T04:05:32.936Z,928.18
2017-05-07T04:05:52.331Z,928.18
2017-05-07T04:06:12.085Z,928.18
2017-05-07T04:06:32.087Z,928.18
2017-05-07T04:06:52.076Z,928.17
2017-05-07T04:07:12.044Z,928.15
2017-05-07T04:07:32.018Z,928.17
2017-05-07T04:07:51.996Z,928.19